Time;durP1;ratioP1;P1;durP2;ratioP2;P2;SDS_P1;SDS_P2;PMS_P1;PMS_P2;Temp;Humidity;BMP_temperature;BMP_pressure;BME280_temperature;BME280_humidity;BME280_pressure;Samples;Min_cycle;Max_cycle;Signal;HPM_P1;HPM_P2
2021/12/07 00:01:47;;;;;;;13.43;6.10;;;-13.20;99.90;;;;;;4841837;29;20459;-84
2021/12/07 00:04:16;;;;;;;16.02;6.38;;;-13.20;99.90;;;;;;4841886;29;20410;-82
2021/12/07 00:06:43;;;;;;;15.10;6.83;;;-13.10;99.90;;;;;;4855630;29;20606;-85
2021/12/07 00:09:13;;;;;;;13.55;6.00;;;-13.10;99.90;;;;;;4841757;29;20410;-84
2021/12/07 00:11:43;;;;;;;13.43;5.72;;;-13.20;99.90;;;;;;4856055;29;20916;-84
2021/12/07 00:14:13;;;;;;;11.15;5.85;;;-13.60;99.90;;;;;;4840880;29;20422;-83
2021/12/07 00:16:42;;;;;;;13.75;6.50;;;-13.90;99.90;;;;;;4840429;29;20422;-82
2021/12/07 00:19:11;;;;;;;15.15;6.53;;;-13.60;99.90;;;;;;4841525;29;20399;-85
2021/12/07 00:21:40;;;;;;;15.45;6.50;;;-13.50;99.90;;;;;;4841305;29;20425;-83
2021/12/07 00:24:09;;;;;;;11.27;4.90;;;-13.40;99.90;;;;;;4841187;29;20406;-83
2021/12/07 00:26:39;;;;;;;14.30;6.23;;;-13.80;99.90;;;;;;4841373;29;20420;-83
2021/12/07 00:29:08;;;;;;;13.85;5.70;;;-13.80;99.90;;;;;;4839926;29;20657;-83
2021/12/07 00:31:50;;;;;;;14.23;6.35;;;-13.60;99.90;;;;;;4841120;29;20437;-82
2021/12/07 00:37:00;;;;;;;15.77;6.50;;;-13.50;99.90;;;;;;4841101;29;20418;-83
2021/12/07 00:39:28;;;;;;;15.25;6.30;;;-13.40;99.90;;;;;;4841151;29;20489;-81
2021/12/07 00:41:56;;;;;;;14.40;5.65;;;-13.40;99.90;;;;;;4841087;29;20406;-83
2021/12/07 00:44:25;;;;;;;14.00;5.75;;;-13.30;99.90;;;;;;4839949;29;20906;-83
2021/12/07 00:46:52;;;;;;;13.10;5.65;;;-13.30;99.90;;;;;;4841233;29;20414;-83
2021/12/07 00:49:21;;;;;;;13.52;5.22;;;-13.30;99.90;;;;;;4840955;29;20433;-82
2021/12/07 00:51:50;;;;;;;13.18;5.78;;;-13.50;99.90;;;;;;4839856;29;20411;-83
2021/12/07 00:54:17;;;;;;;13.30;5.72;;;-13.50;99.90;;;;;;4855126;29;20482;-84
2021/12/07 00:56:45;;;;;;;12.52;5.78;;;-13.50;99.90;;;;;;4841158;29;20504;-83
2021/12/07 00:59:14;;;;;;;12.38;5.45;;;-13.50;99.90;;;;;;4841106;29;20412;-85
2021/12/07 01:01:42;;;;;;;12.40;5.85;;;-13.50;99.90;;;;;;4840000;29;20423;-84
2021/12/07 01:04:10;;;;;;;12.25;5.78;;;-13.50;99.90;;;;;;4841117;29;20452;-84
2021/12/07 01:07:24;;;;;;;12.10;5.80;;;-13.50;99.90;;;;;;4840065;29;20439;-83
2021/12/07 01:26:00;;;;;;;13.85;5.75;;;-13.90;99.90;;;;;;4844607;29;20398;-83
2021/12/07 01:28:39;;;;;;;12.77;5.17;;;-13.80;99.90;;;;;;4844714;29;20406;-83
2021/12/07 01:33:53;;;;;;;12.17;5.63;;;-14.10;99.90;;;;;;4843491;29;20403;-81
2021/12/07 01:39:46;;;;;;;11.30;4.60;;;-13.90;99.90;;;;;;4843272;29;20410;-83
2021/12/07 01:45:10;;;;;;;10.48;4.72;;;-14.10;99.90;;;;;;4843352;29;20417;-83
2021/12/07 02:00:55;;;;;;;10.20;4.35;;;-14.70;99.90;;;;;;4842916;29;20473;-84
2021/12/07 02:03:25;;;;;;;10.02;4.57;;;-14.50;99.90;;;;;;4842823;29;20421;-82
2021/12/07 02:05:53;;;;;;;10.70;4.65;;;-14.40;99.90;;;;;;4858284;29;20478;-84
2021/12/07 02:08:21;;;;;;;11.13;4.63;;;-14.30;99.90;;;;;;4843772;29;20418;-84
2021/12/07 02:10:54;;;;;;;10.77;4.10;;;-14.30;99.90;;;;;;4842778;29;20446;-82
2021/12/07 02:15:59;;;;;;;9.75;4.07;;;-14.20;99.90;;;;;;4842587;29;20425;-84
2021/12/07 02:18:28;;;;;;;11.05;4.35;;;-14.20;99.90;;;;;;4842439;29;20471;-84
2021/12/07 02:20:56;;;;;;;10.65;4.47;;;-14.20;99.90;;;;;;4857852;29;20414;-83
2021/12/07 02:23:23;;;;;;;7.82;3.60;;;-14.30;99.90;;;;;;4843670;29;20398;-83
2021/12/07 02:25:51;;;;;;;10.07;4.45;;;-14.70;99.90;;;;;;4842362;29;20407;-84
2021/12/07 02:28:21;;;;;;;11.63;4.50;;;-14.60;99.90;;;;;;4842233;29;20814;-83
2021/12/07 02:30:49;;;;;;;10.35;4.00;;;-14.60;99.90;;;;;;4857752;29;20497;-83
2021/12/07 02:33:16;;;;;;;11.48;4.60;;;-14.60;99.90;;;;;;4843368;29;20406;-83
2021/12/07 02:35:44;;;;;;;8.88;4.10;;;-14.60;99.90;;;;;;4843302;29;20910;-84
2021/12/07 02:38:12;;;;;;;10.02;3.78;;;-14.80;99.90;;;;;;4857318;29;20429;-83
2021/12/07 02:40:40;;;;;;;10.77;3.97;;;-14.70;99.90;;;;;;4857447;29;20414;-83
2021/12/07 02:43:08;;;;;;;11.00;4.43;;;-14.70;99.90;;;;;;4842123;29;20418;-84
2021/12/07 02:45:36;;;;;;;11.48;4.53;;;-14.60;99.90;;;;;;4841863;29;20414;-82
2021/12/07 02:48:04;;;;;;;9.73;4.13;;;-14.60;99.90;;;;;;4842087;29;20410;-83
2021/12/07 02:50:33;;;;;;;10.73;4.40;;;-14.70;99.90;;;;;;4843173;29;20674;-84
2021/12/07 02:53:02;;;;;;;10.32;4.13;;;-14.90;99.90;;;;;;4842070;29;20418;-83
2021/12/07 02:55:34;;;;;;;8.95;3.97;;;-14.80;99.90;;;;;;4841867;29;20434;-84
2021/12/07 02:58:02;;;;;;;9.03;3.93;;;-14.90;99.90;;;;;;4857148;29;20433;-85
2021/12/07 03:00:39;;;;;;;10.43;4.22;;;-14.90;99.90;;;;;;4841830;29;20920;-84
2021/12/07 03:03:11;;;;;;;9.18;4.15;;;-15.10;99.90;;;;;;4828092;29;20410;-83
2021/12/07 03:27:47;;;;;;;8.50;3.70;;;-15.00;99.90;;;;;;4840061;29;20672;-84
2021/12/07 03:30:15;;;;;;;9.65;3.65;;;-15.00;99.90;;;;;;4842427;29;20410;-84
2021/12/07 03:32:46;;;;;;;8.45;3.42;;;-15.00;99.90;;;;;;4841447;29;20442;-83
2021/12/07 03:35:14;;;;;;;8.30;3.35;;;-15.10;99.90;;;;;;4841088;29;20543;-83
2021/12/07 03:37:42;;;;;;;7.53;3.10;;;-15.30;99.90;;;;;;4842389;29;20801;-85
2021/12/07 03:40:12;;;;;;;7.77;3.20;;;-15.40;99.90;;;;;;4840957;29;20417;-84
2021/12/07 03:42:39;;;;;;;7.18;3.17;;;-15.50;99.90;;;;;;4841103;29;20856;-84
2021/12/07 03:45:10;;;;;;;6.90;2.92;;;-15.50;99.90;;;;;;4841021;29;20498;-83
2021/12/07 03:47:39;;;;;;;7.80;3.20;;;-15.50;99.90;;;;;;4841032;29;20422;-83
2021/12/07 03:50:09;;;;;;;7.80;3.10;;;-15.50;99.90;;;;;;4856412;29;20414;-83
2021/12/07 03:52:37;;;;;;;8.32;3.35;;;-15.40;99.90;;;;;;4840902;29;20442;-83
2021/12/07 03:55:06;;;;;;;7.80;3.22;;;-15.50;99.90;;;;;;4840765;29;20415;-84
2021/12/07 03:57:34;;;;;;;7.05;3.42;;;-15.40;99.90;;;;;;4839962;29;20442;-83
2021/12/07 04:00:05;;;;;;;7.68;3.28;;;-15.50;99.90;;;;;;4830689;29;20482;-82
2021/12/07 04:02:42;;;;;;;13.07;3.72;;;-15.50;99.90;;;;;;4840894;29;20410;-83
2021/12/07 04:05:18;;;;;;;7.88;3.10;;;-15.60;99.90;;;;;;4841577;29;20444;-83
2021/12/07 04:07:50;;;;;;;7.23;2.70;;;-15.50;99.90;;;;;;4840508;29;20509;-83
2021/12/07 04:10:25;;;;;;;7.78;3.22;;;-15.50;99.90;;;;;;4840474;29;20491;-84
2021/12/07 04:12:53;;;;;;;8.23;3.35;;;-15.50;99.90;;;;;;4840676;29;20410;-83
2021/12/07 04:15:21;;;;;;;8.68;3.60;;;-15.60;99.90;;;;;;4840453;29;20425;-83
2021/12/07 04:17:49;;;;;;;8.75;3.60;;;-15.50;99.90;;;;;;4841647;29;20422;-84
2021/12/07 04:20:19;;;;;;;9.07;3.90;;;-15.40;99.90;;;;;;4840398;29;20418;-82
2021/12/07 04:22:48;;;;;;;8.77;3.53;;;-15.30;99.90;;;;;;4855933;29;20479;-84
2021/12/07 04:25:17;;;;;;;8.80;3.20;;;-15.30;99.90;;;;;;4841456;29;20438;-84
2021/12/07 04:27:45;;;;;;;8.77;3.40;;;-15.20;99.90;;;;;;4841884;29;20411;-84
2021/12/07 04:30:19;;;;;;;8.13;3.42;;;-15.20;99.90;;;;;;4841562;29;20455;-84
2021/12/07 04:32:47;;;;;;;8.95;3.80;;;-15.20;99.90;;;;;;4841534;29;20406;-84
2021/12/07 04:35:16;;;;;;;8.27;3.60;;;-15.20;99.90;;;;;;4841303;29;20410;-84
2021/12/07 04:37:43;;;;;;;8.40;3.00;;;-15.20;99.90;;;;;;4841393;29;20463;-83
2021/12/07 04:40:18;;;;;;;7.07;2.83;;;-15.10;99.90;;;;;;4841425;29;20403;-84
2021/12/07 04:42:46;;;;;;;8.40;3.17;;;-15.10;99.90;;;;;;4841300;29;20501;-83
2021/12/07 04:48:34;;;;;;;8.25;3.92;;;-15.20;99.90;;;;;;4841230;29;20413;-83
2021/12/07 04:59:21;;;;;;;7.22;3.10;;;-14.90;99.90;;;;;;4841145;29;20414;-83
2021/12/07 05:01:49;;;;;;;7.20;3.30;;;-14.80;99.90;;;;;;4839113;29;20482;-83
2021/12/07 05:04:22;;;;;;;8.30;3.40;;;-14.90;99.90;;;;;;4823400;29;20416;-83
2021/12/07 05:06:54;;;;;;;9.32;3.67;;;-15.00;99.90;;;;;;4834756;29;20513;-83
2021/12/07 05:14:43;;;;;;;8.45;3.35;;;-15.00;99.90;;;;;;4840977;29;20899;-83
2021/12/07 05:39:36;;;;;;;9.25;3.75;;;-14.70;99.90;;;;;;4840747;29;20406;-83
2021/12/07 05:42:04;;;;;;;9.60;4.25;;;-14.70;99.90;;;;;;4840622;29;20405;-83
2021/12/07 05:44:31;;;;;;;8.57;3.70;;;-14.70;99.90;;;;;;4840623;29;20628;-82
2021/12/07 05:46:59;;;;;;;10.77;4.03;;;-14.70;99.90;;;;;;4840669;29;20406;-83
2021/12/07 05:49:27;;;;;;;8.98;3.72;;;-14.80;99.90;;;;;;4840480;29;20402;-83
2021/12/07 05:51:54;;;;;;;8.60;4.07;;;-14.80;99.90;;;;;;4840530;29;20885;-82
2021/12/07 05:54:22;;;;;;;8.27;3.40;;;-14.70;99.90;;;;;;4839305;29;20407;-83
2021/12/07 05:56:50;;;;;;;9.45;4.05;;;-14.70;99.90;;;;;;4839498;29;20426;-83
2021/12/07 05:59:18;;;;;;;8.20;3.90;;;-14.70;99.90;;;;;;4854094;29;21021;-84
2021/12/07 06:01:46;;;;;;;8.25;3.45;;;-14.70;99.90;;;;;;4839635;29;20406;-83
2021/12/07 06:04:13;;;;;;;8.98;3.60;;;-14.70;99.90;;;;;;4842382;29;20495;-85
2021/12/07 06:06:41;;;;;;;11.52;3.63;;;-14.80;99.90;;;;;;4858006;29;20406;-83
2021/12/07 06:09:08;;;;;;;6.43;2.78;;;-14.70;99.90;;;;;;4843799;29;20410;-84
2021/12/07 06:11:36;;;;;;;7.28;2.80;;;-14.70;99.90;;;;;;4843152;29;20423;-85
2021/12/07 06:14:04;;;;;;;6.15;2.72;;;-14.80;99.90;;;;;;4843793;29;20411;-85
2021/12/07 06:16:32;;;;;;;6.35;3.10;;;-14.70;99.90;;;;;;4844010;29;20407;-88
2021/12/07 06:18:59;;;;;;;6.18;2.53;;;-14.80;99.90;;;;;;4843818;29;20426;-85
2021/12/07 06:21:28;;;;;;;5.53;2.63;;;-14.90;99.90;;;;;;4843680;29;20909;-85
2021/12/07 06:23:56;;;;;;;5.63;2.57;;;-14.90;99.90;;;;;;4843722;29;20409;-85
2021/12/07 06:26:23;;;;;;;5.60;2.53;;;-14.90;99.90;;;;;;4843599;29;20406;-84
2021/12/07 06:28:51;;;;;;;5.20;2.17;;;-14.90;99.90;;;;;;4842444;29;20434;-86
2021/12/07 06:31:18;;;;;;;6.07;2.40;;;-14.90;99.90;;;;;;4857093;29;20828;-86
2021/12/07 06:33:46;;;;;;;5.50;2.20;;;-15.00;99.90;;;;;;4842731;29;20426;-86
2021/12/07 06:36:15;;;;;;;4.70;2.30;;;-15.00;99.90;;;;;;4842524;29;20413;-87
2021/12/07 06:38:44;;;;;;;5.25;2.40;;;-15.10;99.90;;;;;;4843421;29;20442;-88
2021/12/07 06:41:11;;;;;;;5.80;2.50;;;-15.20;99.90;;;;;;4843311;29;20403;-85
2021/12/07 06:43:39;;;;;;;4.55;1.90;;;-15.20;99.90;;;;;;4843322;29;20409;-88
2021/12/07 06:46:07;;;;;;;4.38;2.10;;;-15.20;99.90;;;;;;4843180;29;20404;-88
2021/12/07 06:48:35;;;;;;;4.50;2.00;;;-15.20;99.90;;;;;;4841709;29;20417;-87
2021/12/07 06:51:03;;;;;;;4.43;2.00;;;-15.20;99.90;;;;;;4842955;29;20421;-86
2021/12/07 06:53:35;;;;;;;4.90;1.85;;;-15.30;99.90;;;;;;4842053;29;20418;-87
2021/12/07 06:56:08;;;;;;;3.90;1.70;;;-15.30;99.90;;;;;;4843245;29;20662;-87
2021/12/07 06:58:37;;;;;;;4.15;1.60;;;-15.30;99.90;;;;;;4834807;29;20425;-87
2021/12/07 07:01:07;;;;;;;3.72;1.70;;;-15.40;99.90;;;;;;4829189;29;20414;-85
2021/12/07 07:03:35;;;;;;;3.28;1.67;;;-15.40;99.90;;;;;;4842981;29;20809;-87
2021/12/07 07:06:04;;;;;;;4.23;1.50;;;-15.50;99.90;;;;;;4832798;29;20428;-86
2021/12/07 07:08:32;;;;;;;3.33;1.40;;;-15.50;99.90;;;;;;4824214;29;20884;-87
2021/12/07 07:11:01;;;;;;;3.35;1.65;;;-15.50;99.90;;;;;;4824508;29;20992;-88
2021/12/07 07:13:29;;;;;;;2.92;1.42;;;-15.40;99.90;;;;;;4825965;29;20851;-87
2021/12/07 07:15:58;;;;;;;4.43;1.70;;;-15.30;99.90;;;;;;4841926;29;20666;-87
2021/12/07 07:18:26;;;;;;;9.88;1.80;;;-15.30;99.90;;;;;;4841575;29;20981;-86
2021/12/07 07:20:55;;;;;;;30.63;3.80;;;-15.30;99.90;;;;;;4841448;29;20406;-86
2021/12/07 07:23:24;;;;;;;13.68;1.80;;;-15.30;99.90;;;;;;4842570;29;20403;-86
2021/12/07 07:25:55;;;;;;;4.35;1.50;;;-15.30;99.90;;;;;;4842736;29;20466;-87
2021/12/07 07:28:31;;;;;;;4.30;1.55;;;-15.40;99.90;;;;;;4842436;29;20441;-87
2021/12/07 07:30:58;;;;;;;2.77;1.37;;;-15.40;99.90;;;;;;4838036;29;20412;-87
2021/12/07 07:33:26;;;;;;;3.17;1.50;;;-15.40;99.90;;;;;;4824138;29;20916;-88
2021/12/07 07:35:54;;;;;;;4.20;1.55;;;-15.40;99.90;;;;;;4824234;29;20892;-85
2021/12/07 07:38:21;;;;;;;3.23;1.40;;;-15.30;99.90;;;;;;4822920;29;20599;-84
2021/12/07 07:40:49;;;;;;;3.00;1.48;;;-15.30;99.90;;;;;;4823123;29;20538;-88
2021/12/07 07:43:22;;;;;;;2.47;1.17;;;-15.30;99.90;;;;;;4823021;29;20776;-85
2021/12/07 07:46:06;;;;;;;3.58;1.42;;;-15.20;99.90;;;;;;4838252;29;20431;-85
2021/12/07 07:48:33;;;;;;;2.75;1.27;;;-15.20;99.90;;;;;;4823968;29;20498;-85
2021/12/07 07:51:02;;;;;;;3.37;1.50;;;-15.20;99.90;;;;;;4837948;29;20430;-85
2021/12/07 07:53:30;;;;;;;3.60;1.40;;;-15.30;99.90;;;;;;4838570;29;20427;-84
2021/12/07 07:56:01;;;;;;;3.28;1.42;;;-15.40;99.90;;;;;;4822691;29;20412;-85
2021/12/07 07:58:28;;;;;;;2.65;1.38;;;-15.40;99.90;;;;;;4823202;29;20439;-86
2021/12/07 08:00:57;;;;;;;2.65;1.33;;;-15.40;99.90;;;;;;4822703;29;20408;-85
2021/12/07 08:03:24;;;;;;;3.20;1.40;;;-15.30;99.90;;;;;;4822831;29;20414;-88
2021/12/07 08:05:52;;;;;;;2.97;1.27;;;-15.30;99.90;;;;;;4832748;29;20410;-86
2021/12/07 08:08:23;;;;;;;2.28;1.15;;;-15.30;99.90;;;;;;4824151;29;20501;-87
2021/12/07 08:10:51;;;;;;;2.78;1.35;;;-15.30;99.90;;;;;;4825700;29;20421;-86
2021/12/07 08:13:20;;;;;;;3.00;1.40;;;-15.20;99.90;;;;;;4837658;29;20428;-86
2021/12/07 08:15:49;;;;;;;2.30;1.10;;;-15.20;99.90;;;;;;4822564;29;20445;-84
2021/12/07 08:18:17;;;;;;;2.13;1.27;;;-15.30;99.90;;;;;;4822392;29;20472;-87
2021/12/07 08:20:45;;;;;;;2.42;1.13;;;-15.20;99.90;;;;;;4837400;29;20400;-88
2021/12/07 08:23:13;;;;;;;2.88;1.15;;;-15.20;99.90;;;;;;4822428;29;20424;-84
2021/12/07 08:25:46;;;;;;;2.08;1.02;;;-15.20;99.90;;;;;;4837863;29;20462;-87
2021/12/07 08:28:19;;;;;;;3.10;1.25;;;-15.10;99.90;;;;;;4825172;29;20398;-87
2021/12/07 08:30:49;;;;;;;2.00;1.00;;;-14.90;99.90;;;;;;4841762;29;20407;-87
2021/12/07 08:33:17;;;;;;;2.22;1.20;;;-15.00;99.90;;;;;;4841598;29;20410;-86
2021/12/07 08:35:45;;;;;;;2.67;1.30;;;-15.10;99.90;;;;;;4855733;29;20402;-85
2021/12/07 08:38:12;;;;;;;2.60;1.25;;;-15.10;99.90;;;;;;4840195;29;20479;-85
2021/12/07 08:40:41;;;;;;;2.88;1.10;;;-15.10;99.90;;;;;;4840381;29;20403;-85
2021/12/07 08:43:12;;;;;;;2.88;1.40;;;-15.10;99.90;;;;;;4855360;29;20402;-86
2021/12/07 08:45:41;;;;;;;2.80;1.05;;;-15.10;99.90;;;;;;4841403;29;20438;-85
2021/12/07 08:48:09;;;;;;;2.10;1.00;;;-15.00;99.90;;;;;;4841263;29;20492;-84
2021/12/07 08:50:36;;;;;;;2.80;1.20;;;-15.00;99.90;;;;;;4840139;29;20406;-84
2021/12/07 08:53:07;;;;;;;2.37;1.13;;;-15.00;99.90;;;;;;4841240;29;20406;-84
2021/12/07 09:01:10;;;;;;;2.93;1.33;;;-15.00;99.90;;;;;;4823180;29;20390;-85
2021/12/07 09:03:38;;;;;;;3.90;1.70;;;-15.00;99.90;;;;;;4822070;29;20432;-86
2021/12/07 09:06:06;;;;;;;2.50;1.13;;;-14.90;99.90;;;;;;4835195;29;20459;-84
2021/12/07 09:08:36;;;;;;;2.33;1.10;;;-14.90;99.90;;;;;;4839756;29;20497;-85
2021/12/07 09:11:04;;;;;;;2.50;1.25;;;-14.80;99.90;;;;;;4840114;29;20513;-86
2021/12/07 09:13:32;;;;;;;2.58;1.17;;;-14.90;99.90;;;;;;4841302;29;20441;-84
2021/12/07 09:16:02;;;;;;;1.92;1.02;;;-14.90;99.90;;;;;;4840711;29;20414;-85
2021/12/07 09:18:30;;;;;;;2.28;1.30;;;-14.90;99.90;;;;;;4840494;29;20847;-85
2021/12/07 09:20:58;;;;;;;3.05;1.20;;;-14.80;99.90;;;;;;4841219;29;20408;-86
2021/12/07 09:23:26;;;;;;;2.15;1.17;;;-14.80;99.90;;;;;;4841251;29;20459;-82
2021/12/07 09:25:54;;;;;;;2.50;1.42;;;-14.80;99.90;;;;;;4839017;29;20426;-84
2021/12/07 09:28:22;;;;;;;2.25;1.08;;;-14.70;99.90;;;;;;4841327;29;20433;-84
2021/12/07 09:30:52;;;;;;;3.10;1.50;;;-14.70;99.90;;;;;;4841093;29;20933;-85
2021/12/07 09:33:26;;;;;;;2.40;1.30;;;-14.70;99.90;;;;;;4841391;29;20537;-86
2021/12/07 09:35:56;;;;;;;2.97;1.48;;;-14.60;99.90;;;;;;4841170;29;20410;-85
2021/12/07 09:38:24;;;;;;;3.05;1.40;;;-14.50;99.90;;;;;;4840828;29;20433;-85
2021/12/07 09:40:53;;;;;;;3.33;1.60;;;-14.50;99.90;;;;;;4858933;29;20505;-85
2021/12/07 09:43:22;;;;;;;2.90;1.45;;;-14.40;99.90;;;;;;4843664;29;20454;-85
2021/12/07 09:45:50;;;;;;;2.75;1.42;;;-14.40;99.90;;;;;;4844472;29;20437;-83
2021/12/07 09:48:18;;;;;;;3.35;1.40;;;-14.40;99.90;;;;;;4843235;29;20835;-85
2021/12/07 09:50:53;;;;;;;3.63;1.80;;;-14.40;99.90;;;;;;4844494;29;20834;-85
2021/12/07 09:53:23;;;;;;;4.00;1.70;;;-14.30;99.90;;;;;;4844363;29;20410;-86
2021/12/07 09:56:00;;;;;;;3.50;1.75;;;-14.20;99.90;;;;;;4843079;29;20438;-87
2021/12/07 09:58:28;;;;;;;3.97;1.60;;;-14.00;99.90;;;;;;4844180;29;20802;-87
2021/12/07 10:00:56;;;;;;;3.60;1.70;;;-13.80;99.90;;;;;;4844245;29;20405;-86
2021/12/07 10:03:24;;;;;;;3.77;1.70;;;-13.80;99.90;;;;;;4844114;29;20493;-86
2021/12/07 10:05:53;;;;;;;3.63;1.60;;;-13.80;99.90;;;;;;4833391;29;20498;-84
2021/12/07 10:08:20;;;;;;;5.43;2.00;;;-13.70;99.90;;;;;;4824369;29;20885;-86
2021/12/07 10:10:55;;;;;;;4.15;2.05;;;-13.50;99.90;;;;;;4825611;29;20411;-85
2021/12/07 10:13:29;;;;;;;3.78;1.65;;;-13.40;99.90;;;;;;4842876;29;20874;-87
2021/12/07 10:16:01;;;;;;;5.15;2.10;;;-13.30;99.90;;;;;;4842845;29;20769;-88
2021/12/07 10:18:32;;;;;;;6.65;2.33;;;-13.10;99.90;;;;;;4858458;29;20479;-89
2021/12/07 10:21:13;;;;;;;3.47;1.70;;;-13.10;99.90;;;;;;4843677;29;20413;-88
2021/12/07 10:24:02;;;;;;;4.35;1.88;;;-13.10;99.90;;;;;;4842372;29;20466;-88
2021/12/07 10:26:34;;;;;;;5.28;2.10;;;-12.90;99.90;;;;;;4843685;29;20437;-85
2021/12/07 10:29:08;;;;;;;4.00;2.03;;;-12.70;99.90;;;;;;4843770;29;20412;-86
2021/12/07 10:31:42;;;;;;;4.95;2.30;;;-13.00;99.90;;;;;;4842622;29;20966;-87
2021/12/07 10:34:19;;;;;;;3.50;1.90;;;-12.80;99.90;;;;;;4843531;29;20463;-87
2021/12/07 10:36:49;;;;;;;7.68;2.35;;;-12.70;99.90;;;;;;4843459;29;20438;-87
2021/12/07 10:39:22;;;;;;;5.07;2.35;;;-12.50;99.90;;;;;;4843850;29;20422;-87
2021/12/07 10:41:55;;;;;;;4.40;2.20;;;-12.40;99.90;;;;;;4842583;29;20951;-87
2021/12/07 10:44:38;;;;;;;3.95;1.90;;;-12.30;99.90;;;;;;4843445;29;21014;-87
2021/12/07 10:47:19;;;;;;;3.45;1.90;;;-12.20;99.90;;;;;;4843363;29;20414;-86
2021/12/07 10:49:55;;;;;;;4.03;2.05;;;-12.10;99.90;;;;;;4842332;29;20403;-87
2021/12/07 10:52:34;;;;;;;4.18;1.95;;;-11.90;99.90;;;;;;4843235;29;20498;-86
2021/12/07 10:55:13;;;;;;;4.80;2.05;;;-11.80;99.90;;;;;;4843067;29;20489;-87
2021/12/07 10:57:42;;;;;;;3.40;2.00;;;-11.80;99.90;;;;;;4842682;29;20406;-86
2021/12/07 11:00:16;;;;;;;3.55;1.77;;;-11.60;99.90;;;;;;4841934;29;20422;-86
2021/12/07 11:03:11;;;;;;;4.03;1.92;;;-11.90;99.90;;;;;;4842176;29;20571;-86
2021/12/07 11:05:53;;;;;;;6.00;2.30;;;-12.10;99.90;;;;;;4833824;29;20466;-86
2021/12/07 11:08:25;;;;;;;5.20;1.85;;;-12.10;99.90;;;;;;4842669;29;20441;-87
2021/12/07 11:10:54;;;;;;;4.90;2.00;;;-12.00;99.90;;;;;;4841937;29;20905;-87
2021/12/07 11:13:27;;;;;;;4.22;2.17;;;-12.10;99.90;;;;;;4843159;29;20758;-86
2021/12/07 11:16:10;;;;;;;4.22;1.95;;;-12.10;99.90;;;;;;4839197;29;20465;-88
2021/12/07 11:18:41;;;;;;;4.45;2.17;;;-12.00;99.90;;;;;;4838249;29;20500;-89
2021/12/07 11:21:14;;;;;;;4.18;2.30;;;-12.00;99.90;;;;;;4832832;29;20408;-89
2021/12/07 11:23:46;;;;;;;4.43;2.05;;;-12.00;99.90;;;;;;4838541;29;20975;-86
2021/12/07 11:31:45;;;;;;;6.07;2.50;;;-12.00;99.90;;;;;;4842043;29;20445;-86
2021/12/07 11:34:15;;;;;;;4.93;2.70;;;-12.00;99.90;;;;;;4840979;29;20409;-89
2021/12/07 11:36:44;;;;;;;6.03;2.58;;;-11.90;99.90;;;;;;4841481;29;20881;-88
2021/12/07 11:39:32;;;;;;;6.15;2.92;;;-11.90;99.90;;;;;;4840852;29;20774;-89
2021/12/07 11:42:06;;;;;;;4.97;2.60;;;-11.90;99.90;;;;;;4842736;29;20477;-86
2021/12/07 11:44:38;;;;;;;4.88;2.30;;;-11.90;99.90;;;;;;4839097;29;20469;-87
2021/12/07 11:47:05;;;;;;;5.18;2.58;;;-12.00;99.90;;;;;;4829131;29;20451;-88
2021/12/07 11:49:34;;;;;;;4.90;2.53;;;-12.00;99.90;;;;;;4827973;29;20950;-88
2021/12/07 11:52:04;;;;;;;5.72;2.83;;;-12.00;99.90;;;;;;4842270;29;20434;-87
2021/12/07 11:54:39;;;;;;;5.40;2.80;;;-11.90;99.90;;;;;;4833504;29;20484;-88
2021/12/07 11:57:11;;;;;;;5.40;2.67;;;-11.70;99.90;;;;;;4837979;29;20935;-88
2021/12/07 11:59:40;;;;;;;6.10;2.80;;;-11.60;99.90;;;;;;4824066;29;20424;-88
2021/12/07 12:02:14;;;;;;;5.60;2.65;;;-11.60;99.90;;;;;;4823608;29;20408;-87
2021/12/07 12:04:42;;;;;;;4.80;2.55;;;-11.40;99.90;;;;;;4824072;29;20436;-88
2021/12/07 12:07:10;;;;;;;5.40;2.65;;;-11.40;99.90;;;;;;4834293;29;20471;-88
2021/12/07 12:09:47;;;;;;;4.60;2.83;;;-11.30;99.90;;;;;;4842009;29;20457;-88
2021/12/07 12:12:22;;;;;;;6.00;3.03;;;-11.20;99.90;;;;;;4842040;29;20407;-87
2021/12/07 12:15:09;;;;;;;6.47;2.50;;;-11.20;99.90;;;;;;4840868;29;20790;-88
2021/12/07 12:17:57;;;;;;;5.80;2.67;;;-11.20;99.90;;;;;;4841982;29;20470;-89
2021/12/07 12:20:56;;;;;;;5.07;2.57;;;-11.10;99.90;;;;;;4856098;29;20440;-88
2021/12/07 12:23:34;;;;;;;5.93;2.83;;;-11.10;99.90;;;;;;4838477;29;20475;-87
2021/12/07 12:26:10;;;;;;;5.57;2.63;;;-11.00;99.90;;;;;;4840638;29;20892;-86
2021/12/07 12:28:41;;;;;;;5.57;2.87;;;-11.00;99.90;;;;;;4841779;29;20398;-87
2021/12/07 12:31:12;;;;;;;6.30;3.08;;;-11.00;99.90;;;;;;4840674;29;20402;-88
2021/12/07 12:33:47;;;;;;;6.07;2.70;;;-11.00;99.90;;;;;;4841700;29;20402;-87
2021/12/07 12:36:16;;;;;;;6.18;2.63;;;-11.00;99.90;;;;;;4841562;29;20452;-89
2021/12/07 12:38:48;;;;;;;5.60;2.80;;;-11.00;99.90;;;;;;4841559;29;20398;-87
2021/12/07 12:41:16;;;;;;;5.95;2.80;;;-11.10;99.90;;;;;;4841635;29;20892;-88
2021/12/07 12:43:55;;;;;;;5.57;3.08;;;-11.10;99.90;;;;;;4841622;29;20402;-89
2021/12/07 12:46:29;;;;;;;6.72;3.22;;;-11.00;99.90;;;;;;4840899;29;20407;-84
2021/12/07 12:49:06;;;;;;;6.45;3.20;;;-11.10;99.90;;;;;;4833694;29;20596;-87
2021/12/07 12:51:48;;;;;;;6.68;3.10;;;-11.20;99.90;;;;;;4830077;29;20410;-86
2021/12/07 12:54:18;;;;;;;7.22;3.50;;;-11.30;99.90;;;;;;4825387;29;20897;-86
2021/12/07 12:56:46;;;;;;;7.10;3.13;;;-11.40;99.90;;;;;;4841283;29;20412;-86
2021/12/07 12:59:13;;;;;;;7.63;3.08;;;-11.40;99.90;;;;;;4822053;29;20440;-87
2021/12/07 13:01:44;;;;;;;7.47;3.13;;;-11.50;99.90;;;;;;4821938;29;20446;-87
2021/12/07 13:04:13;;;;;;;9.15;3.53;;;-11.50;99.90;;;;;;4828526;29;20878;-87
2021/12/07 13:06:53;;;;;;;7.50;3.60;;;-11.50;99.90;;;;;;4841032;29;20476;-88
2021/12/07 13:09:25;;;;;;;8.23;3.80;;;-11.60;99.90;;;;;;4841120;29;20897;-87
2021/12/07 13:12:00;;;;;;;7.13;3.25;;;-11.60;99.90;;;;;;4841285;29;20406;-87
2021/12/07 13:14:59;;;;;;;6.68;3.17;;;-11.60;99.90;;;;;;4843689;29;20889;-88
2021/12/07 13:17:32;;;;;;;7.97;3.70;;;-11.70;99.90;;;;;;4838884;29;20422;-87
2021/12/07 13:20:20;;;;;;;8.65;3.72;;;-11.80;99.90;;;;;;4844648;29;20425;-88
2021/12/07 13:23:01;;;;;;;10.40;3.70;;;-11.70;99.90;;;;;;4840560;29;20465;-87
2021/12/07 13:25:51;;;;;;;7.18;2.95;;;-11.80;99.90;;;;;;4826445;29;20412;-88
2021/12/07 13:28:29;;;;;;;6.20;3.10;;;-11.80;99.90;;;;;;4826512;29;20472;-87
2021/12/07 13:31:08;;;;;;;6.80;3.50;;;-11.90;99.90;;;;;;4826465;29;20522;-86
2021/12/07 13:33:40;;;;;;;8.07;3.45;;;-11.90;99.90;;;;;;4826232;29;20404;-87
2021/12/07 13:36:26;;;;;;;8.05;3.67;;;-11.90;99.90;;;;;;4826239;29;20412;-86
2021/12/07 13:38:57;;;;;;;8.20;3.75;;;-11.80;99.90;;;;;;4840000;29;20813;-85
2021/12/07 13:41:25;;;;;;;7.87;3.53;;;-11.90;99.90;;;;;;4826211;29;20484;-87
2021/12/07 13:43:53;;;;;;;8.60;3.92;;;-12.00;99.90;;;;;;4826037;29;20431;-86
2021/12/07 13:46:26;;;;;;;6.47;3.28;;;-11.90;99.90;;;;;;4825010;29;20887;-86
2021/12/07 13:49:14;;;;;;;8.30;3.80;;;-12.00;99.90;;;;;;4825869;29;20407;-85
2021/12/07 13:51:42;;;;;;;7.15;3.33;;;-12.00;99.90;;;;;;4825907;29;20428;-86
2021/12/07 13:54:17;;;;;;;7.03;3.33;;;-12.00;99.90;;;;;;4825873;29;20403;-86
2021/12/07 13:56:46;;;;;;;7.80;3.38;;;-12.00;99.90;;;;;;4825926;29;20434;-87
2021/12/07 13:59:24;;;;;;;5.75;2.80;;;-12.20;99.90;;;;;;4825986;29;20407;-86
2021/12/07 14:01:56;;;;;;;9.25;3.38;;;-12.20;99.90;;;;;;4825881;29;20492;-87
2021/12/07 14:04:26;;;;;;;8.10;3.60;;;-12.20;99.90;;;;;;4825731;29;20821;-87
2021/12/07 14:06:55;;;;;;;7.97;3.20;;;-12.20;99.90;;;;;;4839776;29;20461;-85
2021/12/07 14:09:23;;;;;;;6.80;3.25;;;-12.30;99.90;;;;;;4825794;29;20577;-87
2021/12/07 14:11:57;;;;;;;8.52;3.55;;;-12.30;99.90;;;;;;4839748;29;20415;-86
2021/12/07 14:14:26;;;;;;;7.30;3.20;;;-12.20;99.90;;;;;;4825497;29;20907;-87
2021/12/07 14:16:58;;;;;;;7.28;3.75;;;-12.20;99.90;;;;;;4825567;29;20816;-85
2021/12/07 14:19:27;;;;;;;8.52;3.53;;;-12.30;99.90;;;;;;4825513;29;20480;-87
2021/12/07 14:21:55;;;;;;;5.88;3.03;;;-12.30;99.90;;;;;;4825426;29;20933;-87
2021/12/07 14:24:23;;;;;;;7.40;3.33;;;-12.20;99.90;;;;;;4825206;29;20412;-87
2021/12/07 14:26:51;;;;;;;7.97;3.27;;;-12.30;99.90;;;;;;4825450;29;20400;-85
2021/12/07 14:29:24;;;;;;;10.95;3.63;;;-12.30;99.90;;;;;;4825422;29;20910;-86
2021/12/07 14:31:58;;;;;;;7.10;3.15;;;-12.30;99.90;;;;;;4825816;29;20416;-85
2021/12/07 14:34:30;;;;;;;7.35;2.92;;;-12.40;99.90;;;;;;4825307;29;20837;-85
2021/12/07 14:37:04;;;;;;;7.95;3.25;;;-12.50;99.90;;;;;;4825304;29;20439;-85
2021/12/07 14:39:35;;;;;;;7.35;3.25;;;-12.50;99.90;;;;;;4825019;29;20430;-84
2021/12/07 14:42:12;;;;;;;5.43;2.65;;;-12.50;99.90;;;;;;4843743;29;20423;-85
2021/12/07 14:44:45;;;;;;;5.72;2.63;;;-12.50;99.90;;;;;;4842287;29;20421;-85
2021/12/07 14:47:14;;;;;;;7.05;3.17;;;-12.80;99.90;;;;;;4842833;29;20425;-85
2021/12/07 14:49:45;;;;;;;5.60;2.70;;;-12.70;99.90;;;;;;4842724;29;20993;-84
2021/12/07 14:52:16;;;;;;;5.23;2.77;;;-12.70;99.90;;;;;;4843339;29;20414;-85